sensor_id;sensor_type;location;lat;lon;timestamp;P1;durP1;ratioP1;P2;durP2;ratioP2
12451;SDS011;6291;48.924;12.204;2022-09-24T00:01:19;15.23;;;9.82;;
12451;SDS011;6291;48.924;12.204;2022-09-24T00:06:26;10.70;;;9.18;;
12451;SDS011;6291;48.924;12.204;2022-09-24T00:11:30;11.02;;;8.63;;
12451;SDS011;6291;48.924;12.204;2022-09-24T00:16:33;13.23;;;10.20;;
12451;SDS011;6291;48.924;12.204;2022-09-24T00:21:39;13.93;;;9.57;;
12451;SDS011;6291;48.924;12.204;2022-09-24T00:26:42;18.65;;;11.50;;
12451;SDS011;6291;48.924;12.204;2022-09-24T00:31:52;16.55;;;10.80;;
12451;SDS011;6291;48.924;12.204;2022-09-24T00:36:56;10.80;;;7.88;;
12451;SDS011;6291;48.924;12.204;2022-09-24T00:42:00;8.88;;;7.95;;
12451;SDS011;6291;48.924;12.204;2022-09-24T00:47:03;12.50;;;10.40;;
12451;SDS011;6291;48.924;12.204;2022-09-24T00:52:09;8.60;;;7.72;;
12451;SDS011;6291;48.924;12.204;2022-09-24T00:57:12;9.07;;;8.10;;
12451;SDS011;6291;48.924;12.204;2022-09-24T01:02:16;8.40;;;7.60;;
12451;SDS011;6291;48.924;12.204;2022-09-24T01:07:20;7.70;;;6.90;;
12451;SDS011;6291;48.924;12.204;2022-09-24T01:12:25;8.52;;;7.63;;
12451;SDS011;6291;48.924;12.204;2022-09-24T01:17:37;8.30;;;7.50;;
12451;SDS011;6291;48.924;12.204;2022-09-24T01:22:52;9.15;;;7.80;;
12451;SDS011;6291;48.924;12.204;2022-09-24T01:28:28;8.10;;;7.30;;
12451;SDS011;6291;48.924;12.204;2022-09-24T01:33:40;8.23;;;7.43;;
12451;SDS011;6291;48.924;12.204;2022-09-24T01:38:46;8.10;;;7.18;;
12451;SDS011;6291;48.924;12.204;2022-09-24T01:43:52;7.78;;;6.50;;
12451;SDS011;6291;48.924;12.204;2022-09-24T01:48:57;7.95;;;7.15;;
12451;SDS011;6291;48.924;12.204;2022-09-24T01:54:02;6.80;;;6.20;;
12451;SDS011;6291;48.924;12.204;2022-09-24T01:59:11;7.32;;;6.63;;
12451;SDS011;6291;48.924;12.204;2022-09-24T02:04:19;7.85;;;6.82;;
12451;SDS011;6291;48.924;12.204;2022-09-24T02:09:27;7.50;;;6.80;;
12451;SDS011;6291;48.924;12.204;2022-09-24T02:14:33;7.15;;;6.45;;
12451;SDS011;6291;48.924;12.204;2022-09-24T02:19:42;7.23;;;6.53;;
12451;SDS011;6291;48.924;12.204;2022-09-24T02:24:48;6.25;;;5.65;;
12451;SDS011;6291;48.924;12.204;2022-09-24T02:29:55;7.50;;;6.78;;
12451;SDS011;6291;48.924;12.204;2022-09-24T02:35:00;7.43;;;6.70;;
12451;SDS011;6291;48.924;12.204;2022-09-24T02:40:07;7.38;;;6.65;;
12451;SDS011;6291;48.924;12.204;2022-09-24T02:45:12;7.47;;;6.80;;
12451;SDS011;6291;48.924;12.204;2022-09-24T02:50:17;7.45;;;6.70;;
12451;SDS011;6291;48.924;12.204;2022-09-24T02:55:20;8.70;;;7.88;;
12451;SDS011;6291;48.924;12.204;2022-09-24T03:00:24;8.93;;;8.02;;
12451;SDS011;6291;48.924;12.204;2022-09-24T03:05:30;7.50;;;6.80;;
12451;SDS011;6291;48.924;12.204;2022-09-24T03:10:33;8.25;;;7.47;;
12451;SDS011;6291;48.924;12.204;2022-09-24T03:15:37;8.43;;;7.47;;
12451;SDS011;6291;48.924;12.204;2022-09-24T03:20:41;8.23;;;7.43;;
12451;SDS011;6291;48.924;12.204;2022-09-24T03:25:45;8.40;;;7.60;;
12451;SDS011;6291;48.924;12.204;2022-09-24T03:30:48;8.83;;;6.77;;
12451;SDS011;6291;48.924;12.204;2022-09-24T03:36:06;8.27;;;7.40;;
12451;SDS011;6291;48.924;12.204;2022-09-24T03:41:11;9.15;;;8.25;;
12451;SDS011;6291;48.924;12.204;2022-09-24T03:46:15;9.63;;;8.73;;
12451;SDS011;6291;48.924;12.204;2022-09-24T03:51:21;9.15;;;8.25;;
12451;SDS011;6291;48.924;12.204;2022-09-24T03:56:24;9.90;;;8.65;;
12451;SDS011;6291;48.924;12.204;2022-09-24T04:01:28;9.68;;;8.73;;
12451;SDS011;6291;48.924;12.204;2022-09-24T04:06:35;9.13;;;7.53;;
12451;SDS011;6291;48.924;12.204;2022-09-24T04:11:38;8.40;;;7.60;;
12451;SDS011;6291;48.924;12.204;2022-09-24T04:16:41;9.20;;;8.30;;
12451;SDS011;6291;48.924;12.204;2022-09-24T04:21:47;9.52;;;8.57;;
12451;SDS011;6291;48.924;12.204;2022-09-24T04:26:50;10.00;;;9.10;;
12451;SDS011;6291;48.924;12.204;2022-09-24T04:31:53;9.33;;;8.40;;
12451;SDS011;6291;48.924;12.204;2022-09-24T04:36:59;9.77;;;8.87;;
12451;SDS011;6291;48.924;12.204;2022-09-24T04:42:02;8.75;;;7.93;;
12451;SDS011;6291;48.924;12.204;2022-09-24T04:47:06;9.48;;;8.43;;
12451;SDS011;6291;48.924;12.204;2022-09-24T04:52:10;9.95;;;8.75;;
12451;SDS011;6291;48.924;12.204;2022-09-24T04:57:15;8.15;;;7.40;;
12451;SDS011;6291;48.924;12.204;2022-09-24T05:02:18;10.10;;;8.48;;
12451;SDS011;6291;48.924;12.204;2022-09-24T05:07:23;9.40;;;8.40;;
12451;SDS011;6291;48.924;12.204;2022-09-24T05:12:27;8.90;;;7.75;;
12451;SDS011;6291;48.924;12.204;2022-09-24T05:17:30;9.07;;;8.18;;
12451;SDS011;6291;48.924;12.204;2022-09-24T05:22:34;14.17;;;12.17;;
12451;SDS011;6291;48.924;12.204;2022-09-24T05:27:45;11.02;;;9.60;;
12451;SDS011;6291;48.924;12.204;2022-09-24T05:32:49;9.77;;;8.77;;
12451;SDS011;6291;48.924;12.204;2022-09-24T05:37:54;7.50;;;6.80;;
12451;SDS011;6291;48.924;12.204;2022-09-24T05:42:58;7.55;;;6.78;;
12451;SDS011;6291;48.924;12.204;2022-09-24T05:48:03;7.47;;;6.78;;
12451;SDS011;6291;48.924;12.204;2022-09-24T05:53:07;7.20;;;6.50;;
12451;SDS011;6291;48.924;12.204;2022-09-24T05:58:11;5.90;;;5.17;;
12451;SDS011;6291;48.924;12.204;2022-09-24T06:03:16;5.20;;;4.70;;
12451;SDS011;6291;48.924;12.204;2022-09-24T06:08:21;5.50;;;4.43;;
12451;SDS011;6291;48.924;12.204;2022-09-24T06:13:25;6.03;;;5.47;;
12451;SDS011;6291;48.924;12.204;2022-09-24T06:18:28;5.15;;;4.65;;
12451;SDS011;6291;48.924;12.204;2022-09-24T06:23:33;4.80;;;4.35;;
12451;SDS011;6291;48.924;12.204;2022-09-24T06:28:37;4.90;;;4.40;;
12451;SDS011;6291;48.924;12.204;2022-09-24T06:33:40;5.63;;;4.10;;
12451;SDS011;6291;48.924;12.204;2022-09-24T06:38:48;4.60;;;4.20;;
12451;SDS011;6291;48.924;12.204;2022-09-24T06:43:52;5.40;;;4.90;;
12451;SDS011;6291;48.924;12.204;2022-09-24T06:48:57;6.47;;;5.47;;
12451;SDS011;6291;48.924;12.204;2022-09-24T06:54:02;9.67;;;7.40;;
12451;SDS011;6291;48.924;12.204;2022-09-24T06:59:05;8.93;;;8.00;;
12451;SDS011;6291;48.924;12.204;2022-09-24T07:04:09;6.40;;;5.77;;
12451;SDS011;6291;48.924;12.204;2022-09-24T07:09:14;6.55;;;5.75;;
12451;SDS011;6291;48.924;12.204;2022-09-24T07:14:17;8.35;;;6.40;;
12451;SDS011;6291;48.924;12.204;2022-09-24T07:19:21;6.40;;;5.72;;
12451;SDS011;6291;48.924;12.204;2022-09-24T07:24:25;6.32;;;5.72;;
12451;SDS011;6291;48.924;12.204;2022-09-24T07:29:29;6.93;;;6.22;;
12451;SDS011;6291;48.924;12.204;2022-09-24T07:34:32;8.25;;;6.45;;
12451;SDS011;6291;48.924;12.204;2022-09-24T07:39:37;6.88;;;5.82;;
12451;SDS011;6291;48.924;12.204;2022-09-24T07:44:40;7.33;;;6.57;;
12451;SDS011;6291;48.924;12.204;2022-09-24T07:49:43;7.03;;;6.03;;
12451;SDS011;6291;48.924;12.204;2022-09-24T07:54:48;8.27;;;6.53;;
12451;SDS011;6291;48.924;12.204;2022-09-24T07:59:52;7.37;;;6.67;;
12451;SDS011;6291;48.924;12.204;2022-09-24T08:04:57;7.50;;;6.80;;
12451;SDS011;6291;48.924;12.204;2022-09-24T08:10:02;6.90;;;6.30;;
12451;SDS011;6291;48.924;12.204;2022-09-24T08:15:06;6.00;;;5.40;;
12451;SDS011;6291;48.924;12.204;2022-09-24T08:20:09;6.43;;;5.20;;
12451;SDS011;6291;48.924;12.204;2022-09-24T08:25:15;6.70;;;6.10;;
12451;SDS011;6291;48.924;12.204;2022-09-24T08:30:18;7.25;;;6.55;;
12451;SDS011;6291;48.924;12.204;2022-09-24T08:35:22;7.20;;;6.50;;
12451;SDS011;6291;48.924;12.204;2022-09-24T08:40:27;6.80;;;6.10;;
12451;SDS011;6291;48.924;12.204;2022-09-24T08:45:33;7.35;;;6.55;;
12451;SDS011;6291;48.924;12.204;2022-09-24T08:51:03;7.30;;;6.00;;
12451;SDS011;6291;48.924;12.204;2022-09-24T08:56:11;6.70;;;6.10;;
12451;SDS011;6291;48.924;12.204;2022-09-24T09:01:18;7.25;;;5.90;;
12451;SDS011;6291;48.924;12.204;2022-09-24T09:06:42;6.18;;;5.57;;
12451;SDS011;6291;48.924;12.204;2022-09-24T09:11:58;6.80;;;6.20;;
12451;SDS011;6291;48.924;12.204;2022-09-24T09:17:04;6.82;;;6.13;;
12451;SDS011;6291;48.924;12.204;2022-09-24T09:22:14;6.23;;;5.63;;
12451;SDS011;6291;48.924;12.204;2022-09-24T09:27:20;5.95;;;5.45;;
12451;SDS011;6291;48.924;12.204;2022-09-24T09:32:27;6.68;;;6.00;;
12451;SDS011;6291;48.924;12.204;2022-09-24T09:37:42;7.23;;;5.90;;
12451;SDS011;6291;48.924;12.204;2022-09-24T09:42:59;7.90;;;5.90;;
12451;SDS011;6291;48.924;12.204;2022-09-24T09:48:04;8.85;;;6.85;;
12451;SDS011;6291;48.924;12.204;2022-09-24T09:53:19;7.47;;;6.55;;
12451;SDS011;6291;48.924;12.204;2022-09-24T09:58:25;7.00;;;6.25;;
12451;SDS011;6291;48.924;12.204;2022-09-24T10:03:30;8.20;;;7.03;;
12451;SDS011;6291;48.924;12.204;2022-09-24T10:08:36;6.47;;;5.88;;
12451;SDS011;6291;48.924;12.204;2022-09-24T10:13:42;6.80;;;6.10;;
12451;SDS011;6291;48.924;12.204;2022-09-24T10:18:46;7.38;;;6.65;;
12451;SDS011;6291;48.924;12.204;2022-09-24T10:23:51;7.73;;;6.93;;
12451;SDS011;6291;48.924;12.204;2022-09-24T10:29:01;8.40;;;6.95;;
12451;SDS011;6291;48.924;12.204;2022-09-24T10:34:23;7.70;;;7.03;;
12451;SDS011;6291;48.924;12.204;2022-09-24T10:39:29;7.13;;;6.50;;
12451;SDS011;6291;48.924;12.204;2022-09-24T10:44:34;7.80;;;7.00;;
12451;SDS011;6291;48.924;12.204;2022-09-24T10:49:42;7.28;;;6.57;;
12451;SDS011;6291;48.924;12.204;2022-09-24T10:54:57;8.33;;;6.60;;
12451;SDS011;6291;48.924;12.204;2022-09-24T11:00:12;8.20;;;6.63;;
12451;SDS011;6291;48.924;12.204;2022-09-24T11:05:20;6.80;;;5.90;;
12451;SDS011;6291;48.924;12.204;2022-09-24T11:10:29;8.57;;;6.97;;
12451;SDS011;6291;48.924;12.204;2022-09-24T11:21:29;7.93;;;7.13;;
12451;SDS011;6291;48.924;12.204;2022-09-24T11:26:44;7.95;;;7.15;;
12451;SDS011;6291;48.924;12.204;2022-09-24T11:32:02;9.83;;;7.90;;
12451;SDS011;6291;48.924;12.204;2022-09-24T11:37:16;9.40;;;8.57;;
12451;SDS011;6291;48.924;12.204;2022-09-24T11:42:32;10.75;;;9.15;;
12451;SDS011;6291;48.924;12.204;2022-09-24T11:47:55;9.20;;;8.35;;
12451;SDS011;6291;48.924;12.204;2022-09-24T11:53:30;10.57;;;9.48;;
12451;SDS011;6291;48.924;12.204;2022-09-24T11:58:41;11.70;;;9.80;;
12451;SDS011;6291;48.924;12.204;2022-09-24T12:03:50;11.60;;;10.23;;
12451;SDS011;6291;48.924;12.204;2022-09-24T12:09:00;10.93;;;9.93;;
12451;SDS011;6291;48.924;12.204;2022-09-24T12:14:12;10.87;;;9.70;;
12451;SDS011;6291;48.924;12.204;2022-09-24T12:19:23;11.95;;;10.30;;
12451;SDS011;6291;48.924;12.204;2022-09-24T12:24:29;12.63;;;10.18;;
12451;SDS011;6291;48.924;12.204;2022-09-24T12:29:38;11.27;;;10.23;;
12451;SDS011;6291;48.924;12.204;2022-09-24T12:35:09;11.80;;;10.68;;
12451;SDS011;6291;48.924;12.204;2022-09-24T12:40:32;13.30;;;11.88;;
12451;SDS011;6291;48.924;12.204;2022-09-24T12:45:46;13.67;;;12.37;;
12451;SDS011;6291;48.924;12.204;2022-09-24T12:50:57;11.40;;;10.30;;
12451;SDS011;6291;48.924;12.204;2022-09-24T12:56:02;14.55;;;11.95;;
12451;SDS011;6291;48.924;12.204;2022-09-24T13:01:12;13.40;;;12.00;;
12451;SDS011;6291;48.924;12.204;2022-09-24T13:06:31;13.02;;;11.73;;
12451;SDS011;6291;48.924;12.204;2022-09-24T13:11:36;14.32;;;12.82;;
12451;SDS011;6291;48.924;12.204;2022-09-24T13:16:39;13.70;;;12.40;;
12451;SDS011;6291;48.924;12.204;2022-09-24T13:21:51;15.25;;;13.63;;
12451;SDS011;6291;48.924;12.204;2022-09-24T13:27:07;14.73;;;13.32;;
12451;SDS011;6291;48.924;12.204;2022-09-24T13:32:13;14.85;;;13.35;;
12451;SDS011;6291;48.924;12.204;2022-09-24T13:37:25;15.57;;;13.98;;
12451;SDS011;6291;48.924;12.204;2022-09-24T13:42:36;14.15;;;12.75;;
12451;SDS011;6291;48.924;12.204;2022-09-24T13:47:48;15.48;;;13.98;;
12451;SDS011;6291;48.924;12.204;2022-09-24T13:52:56;15.90;;;14.20;;
12451;SDS011;6291;48.924;12.204;2022-09-24T13:58:10;14.00;;;12.70;;
12451;SDS011;6291;48.924;12.204;2022-09-24T14:03:28;16.00;;;14.32;;
12451;SDS011;6291;48.924;12.204;2022-09-24T14:08:34;17.17;;;15.57;;
12451;SDS011;6291;48.924;12.204;2022-09-24T14:13:40;17.05;;;15.35;;
12451;SDS011;6291;48.924;12.204;2022-09-24T14:18:46;16.50;;;14.90;;
12451;SDS011;6291;48.924;12.204;2022-09-24T14:23:52;17.93;;;16.13;;
12451;SDS011;6291;48.924;12.204;2022-09-24T14:29:05;17.87;;;16.17;;
12451;SDS011;6291;48.924;12.204;2022-09-24T14:34:20;17.83;;;16.05;;
12451;SDS011;6291;48.924;12.204;2022-09-24T14:39:40;28.80;;;23.67;;
12451;SDS011;6291;48.924;12.204;2022-09-24T14:44:46;19.95;;;17.98;;
12451;SDS011;6291;48.924;12.204;2022-09-24T14:49:52;18.13;;;16.42;;
12451;SDS011;6291;48.924;12.204;2022-09-24T14:55:13;18.98;;;17.17;;
12451;SDS011;6291;48.924;12.204;2022-09-24T15:00:19;18.67;;;16.63;;
12451;SDS011;6291;48.924;12.204;2022-09-24T15:05:25;21.70;;;19.40;;
12451;SDS011;6291;48.924;12.204;2022-09-24T15:10:31;23.08;;;20.70;;
12451;SDS011;6291;48.924;12.204;2022-09-24T15:15:35;20.38;;;18.38;;
12451;SDS011;6291;48.924;12.204;2022-09-24T15:20:41;20.50;;;18.50;;
12451;SDS011;6291;48.924;12.204;2022-09-24T15:25:46;24.80;;;22.37;;
12451;SDS011;6291;48.924;12.204;2022-09-24T15:30:49;24.60;;;22.13;;
12451;SDS011;6291;48.924;12.204;2022-09-24T15:35:53;23.63;;;21.30;;
12451;SDS011;6291;48.924;12.204;2022-09-24T15:40:57;34.72;;;31.17;;
12451;SDS011;6291;48.924;12.204;2022-09-24T15:46:02;24.65;;;22.10;;
12451;SDS011;6291;48.924;12.204;2022-09-24T15:51:05;27.40;;;24.30;;
12451;SDS011;6291;48.924;12.204;2022-09-24T15:56:17;27.10;;;24.20;;
12451;SDS011;6291;48.924;12.204;2022-09-24T16:01:20;25.13;;;22.52;;
12451;SDS011;6291;48.924;12.204;2022-09-24T16:06:24;23.08;;;20.73;;
12451;SDS011;6291;48.924;12.204;2022-09-24T16:11:29;20.70;;;18.70;;
12451;SDS011;6291;48.924;12.204;2022-09-24T16:16:32;21.63;;;19.40;;
12451;SDS011;6291;48.924;12.204;2022-09-24T16:21:35;25.97;;;23.20;;
12451;SDS011;6291;48.924;12.204;2022-09-24T16:26:40;24.57;;;22.03;;
12451;SDS011;6291;48.924;12.204;2022-09-24T16:31:43;23.05;;;20.65;;
12451;SDS011;6291;48.924;12.204;2022-09-24T16:36:47;25.83;;;23.30;;
12451;SDS011;6291;48.924;12.204;2022-09-24T16:41:52;29.17;;;26.30;;
12451;SDS011;6291;48.924;12.204;2022-09-24T16:46:55;28.65;;;25.80;;
12451;SDS011;6291;48.924;12.204;2022-09-24T16:51:58;26.95;;;24.30;;
12451;SDS011;6291;48.924;12.204;2022-09-24T16:57:03;24.65;;;22.27;;
12451;SDS011;6291;48.924;12.204;2022-09-24T17:02:08;22.98;;;20.77;;
12451;SDS011;6291;48.924;12.204;2022-09-24T17:07:13;23.83;;;21.50;;
12451;SDS011;6291;48.924;12.204;2022-09-24T17:12:18;50.50;;;38.60;;
12451;SDS011;6291;48.924;12.204;2022-09-24T17:17:22;38.87;;;31.67;;
12451;SDS011;6291;48.924;12.204;2022-09-24T17:22:25;26.67;;;23.60;;
12451;SDS011;6291;48.924;12.204;2022-09-24T17:27:30;25.83;;;23.10;;
12451;SDS011;6291;48.924;12.204;2022-09-24T17:32:35;23.73;;;21.35;;
12451;SDS011;6291;48.924;12.204;2022-09-24T17:37:38;22.20;;;20.02;;
12451;SDS011;6291;48.924;12.204;2022-09-24T17:42:43;20.77;;;18.77;;
12451;SDS011;6291;48.924;12.204;2022-09-24T17:47:47;19.38;;;17.58;;
12451;SDS011;6291;48.924;12.204;2022-09-24T17:53:01;18.58;;;16.77;;
12451;SDS011;6291;48.924;12.204;2022-09-24T17:58:05;20.77;;;18.88;;
12451;SDS011;6291;48.924;12.204;2022-09-24T18:03:09;19.07;;;17.27;;
12451;SDS011;6291;48.924;12.204;2022-09-24T18:08:12;22.70;;;20.43;;
12451;SDS011;6291;48.924;12.204;2022-09-24T18:13:17;25.40;;;22.88;;
12451;SDS011;6291;48.924;12.204;2022-09-24T18:18:21;32.33;;;27.52;;
12451;SDS011;6291;48.924;12.204;2022-09-24T18:23:25;72.80;;;45.03;;
12451;SDS011;6291;48.924;12.204;2022-09-24T18:28:30;87.32;;;55.75;;
12451;SDS011;6291;48.924;12.204;2022-09-24T18:33:36;66.63;;;46.07;;
12451;SDS011;6291;48.924;12.204;2022-09-24T18:38:41;41.88;;;33.92;;
12451;SDS011;6291;48.924;12.204;2022-09-24T18:43:47;38.05;;;33.85;;
12451;SDS011;6291;48.924;12.204;2022-09-24T18:48:51;33.60;;;30.00;;
12451;SDS011;6291;48.924;12.204;2022-09-24T18:53:57;33.38;;;29.40;;
12451;SDS011;6291;48.924;12.204;2022-09-24T18:59:04;30.08;;;26.98;;
12451;SDS011;6291;48.924;12.204;2022-09-24T19:04:10;28.57;;;25.47;;
12451;SDS011;6291;48.924;12.204;2022-09-24T19:09:15;29.70;;;26.70;;
12451;SDS011;6291;48.924;12.204;2022-09-24T19:14:20;28.55;;;25.70;;
12451;SDS011;6291;48.924;12.204;2022-09-24T19:19:25;27.70;;;24.85;;
12451;SDS011;6291;48.924;12.204;2022-09-24T19:24:29;25.42;;;22.90;;
12451;SDS011;6291;48.924;12.204;2022-09-24T19:29:34;25.55;;;22.92;;
12451;SDS011;6291;48.924;12.204;2022-09-24T19:34:37;25.60;;;22.90;;
12451;SDS011;6291;48.924;12.204;2022-09-24T19:39:41;27.40;;;24.70;;
12451;SDS011;6291;48.924;12.204;2022-09-24T19:44:46;27.13;;;24.40;;
12451;SDS011;6291;48.924;12.204;2022-09-24T19:49:52;26.60;;;23.90;;
12451;SDS011;6291;48.924;12.204;2022-09-24T19:54:55;29.80;;;26.77;;
12451;SDS011;6291;48.924;12.204;2022-09-24T20:00:00;28.60;;;25.73;;
12451;SDS011;6291;48.924;12.204;2022-09-24T20:05:05;32.97;;;29.47;;
12451;SDS011;6291;48.924;12.204;2022-09-24T20:10:09;29.48;;;26.35;;
12451;SDS011;6291;48.924;12.204;2022-09-24T20:15:13;24.35;;;21.85;;
12451;SDS011;6291;48.924;12.204;2022-09-24T20:20:17;26.63;;;23.93;;
12451;SDS011;6291;48.924;12.204;2022-09-24T20:25:20;29.27;;;26.13;;
12451;SDS011;6291;48.924;12.204;2022-09-24T20:30:45;30.02;;;27.02;;
12451;SDS011;6291;48.924;12.204;2022-09-24T20:35:49;30.73;;;27.43;;
12451;SDS011;6291;48.924;12.204;2022-09-24T20:40:52;33.37;;;29.87;;
12451;SDS011;6291;48.924;12.204;2022-09-24T20:45:58;31.92;;;28.63;;
12451;SDS011;6291;48.924;12.204;2022-09-24T20:51:05;30.95;;;27.75;;
12451;SDS011;6291;48.924;12.204;2022-09-24T20:56:10;28.45;;;25.65;;
12451;SDS011;6291;48.924;12.204;2022-09-24T21:01:15;30.65;;;27.38;;
12451;SDS011;6291;48.924;12.204;2022-09-24T21:06:19;30.70;;;27.23;;
12451;SDS011;6291;48.924;12.204;2022-09-24T21:11:24;34.17;;;29.65;;
12451;SDS011;6291;48.924;12.204;2022-09-24T21:16:29;35.43;;;30.87;;
12451;SDS011;6291;48.924;12.204;2022-09-24T21:21:35;37.75;;;33.65;;
12451;SDS011;6291;48.924;12.204;2022-09-24T21:26:40;57.50;;;39.57;;
12451;SDS011;6291;48.924;12.204;2022-09-24T21:31:46;50.35;;;35.47;;
12451;SDS011;6291;48.924;12.204;2022-09-24T21:36:50;33.05;;;27.90;;
12451;SDS011;6291;48.924;12.204;2022-09-24T21:41:54;31.17;;;27.90;;
12451;SDS011;6291;48.924;12.204;2022-09-24T21:47:01;31.63;;;28.30;;
12451;SDS011;6291;48.924;12.204;2022-09-24T21:52:05;33.35;;;29.92;;
12451;SDS011;6291;48.924;12.204;2022-09-24T21:57:08;45.00;;;35.50;;
12451;SDS011;6291;48.924;12.204;2022-09-24T22:02:13;41.20;;;34.45;;
12451;SDS011;6291;48.924;12.204;2022-09-24T22:07:16;58.13;;;39.40;;
12451;SDS011;6291;48.924;12.204;2022-09-24T22:12:20;70.93;;;42.38;;
12451;SDS011;6291;48.924;12.204;2022-09-24T22:17:24;46.05;;;36.20;;
12451;SDS011;6291;48.924;12.204;2022-09-24T22:22:28;49.70;;;36.47;;
12451;SDS011;6291;48.924;12.204;2022-09-24T22:27:32;62.88;;;38.85;;
12451;SDS011;6291;48.924;12.204;2022-09-24T22:32:36;65.82;;;38.08;;
12451;SDS011;6291;48.924;12.204;2022-09-24T22:37:40;64.03;;;38.92;;
12451;SDS011;6291;48.924;12.204;2022-09-24T22:42:43;95.40;;;40.45;;
12451;SDS011;6291;48.924;12.204;2022-09-24T22:47:47;78.65;;;40.67;;
12451;SDS011;6291;48.924;12.204;2022-09-24T22:52:51;97.77;;;41.33;;
12451;SDS011;6291;48.924;12.204;2022-09-24T22:57:54;94.93;;;41.63;;
12451;SDS011;6291;48.924;12.204;2022-09-24T23:02:59;113.13;;;44.87;;
12451;SDS011;6291;48.924;12.204;2022-09-24T23:08:02;96.80;;;42.22;;
12451;SDS011;6291;48.924;12.204;2022-09-24T23:13:05;73.78;;;40.42;;
12451;SDS011;6291;48.924;12.204;2022-09-24T23:18:10;126.83;;;47.97;;
12451;SDS011;6291;48.924;12.204;2022-09-24T23:23:13;111.78;;;49.92;;
12451;SDS011;6291;48.924;12.204;2022-09-24T23:28:16;98.22;;;43.40;;
12451;SDS011;6291;48.924;12.204;2022-09-24T23:33:21;120.72;;;47.03;;
12451;SDS011;6291;48.924;12.204;2022-09-24T23:38:25;107.68;;;47.05;;
12451;SDS011;6291;48.924;12.204;2022-09-24T23:43:28;105.00;;;46.77;;
12451;SDS011;6291;48.924;12.204;2022-09-24T23:48:33;102.25;;;42.70;;
12451;SDS011;6291;48.924;12.204;2022-09-24T23:53:37;87.78;;;37.92;;
12451;SDS011;6291;48.924;12.204;2022-09-24T23:58:41;72.63;;;37.75;;
